Terminal Aerodrome Forecast
Issued by NWS

Home | Current Version | Previous Version | Text Only | Print | Product List | Glossary Off
Versions: 1 2 3 4 5 6 7 8 9 10 11 12 13 14

665
FTUS43 KICT 101727
TAFSLN
TAF
KSLN 101727Z 1018/1118 31015KT P6SM SKC
     FM102300 29009KT P6SM SKC
     FM110500 25005KT P6SM SKC
     FM111200 28010KT P6SM FEW250
     FM111500 29015G22KT P6SM SKC
     FM111700 31025G35KT P6SM SKC=

USA.gov is the U.S. government's official web portal to all federal, state and local government web resources and services.